Campbell, Virginia
Current Conditions -  °F | °C
As of 7:53 PM on Tuesday 27 Jan 2015 (Local Time) from KCHO Reporting Station
Scattered Clouds Scattered Clouds  
Wind Chill: 21°   Ceiling: Unl
Heat Index: 30°   Visibility: 10mi
Dew Point: 16°   Wind: 12mph
Humidity: 56%   Direction: 330°NNW
Pressure: 29.9"   Gusts: NA
Location:  38.0053°N, 78.3345°W
Report Text: KCHO 280053Z 33010KT 10SM SCT055 M01/M09 A2990 RMK AO2 SLP130 T10111089
Loading
Personal Weather Stations






























Interactive Weather Map New forecast layout! Learn more

10-Day Weather Forecast

Advertisements
Track Severe Weather on mobile